createdAt,value
2024-01-06T00:02:19.975Z,95014.47
2024-01-06T00:04:49.133Z,95008.44
2024-01-06T00:07:18.107Z,94992.75
2024-01-06T00:09:48.195Z,95010.56
2024-01-06T00:12:16.629Z,94999.03
2024-01-06T00:14:46.536Z,95005.06
2024-01-06T00:17:14.935Z,94990.56
2024-01-06T00:19:43.421Z,94992.22
2024-01-06T00:22:11.705Z,94988.75
2024-01-06T00:24:40.345Z,94993.16
2024-01-06T00:27:10.275Z,95007.44
2024-01-06T00:29:38.442Z,94988.25
2024-01-06T00:32:07.948Z,94993.03
2024-01-06T00:34:36.746Z,94986.44
2024-01-06T00:37:05.436Z,94988.22
2024-01-06T00:39:34.763Z,94997.66
2024-01-06T00:42:03.157Z,94996.25
2024-01-06T00:44:34.344Z,95002.13
2024-01-06T00:47:02.720Z,95002.56
2024-01-06T00:49:31.546Z,95001.22
2024-01-06T00:52:00.074Z,95007.97
2024-01-06T00:54:28.453Z,95004.25
2024-01-06T00:56:58.379Z,95008.25
2024-01-06T00:59:27.030Z,95014.34
2024-01-06T01:01:56.921Z,95016.31
2024-01-06T01:04:25.562Z,95007.56
2024-01-06T01:06:53.971Z,95020.13
2024-01-06T01:09:22.221Z,95010.66
2024-01-06T01:11:50.552Z,95019.16
2024-01-06T01:14:20.493Z,95011.94
2024-01-06T01:16:49.450Z,95012.78
2024-01-06T01:19:19.420Z,95003.94
2024-01-06T01:21:47.931Z,95005.03
2024-01-06T01:24:16.292Z,95001.22
2024-01-06T01:26:44.687Z,94998.63
2024-01-06T01:29:13.018Z,95001.78
2024-01-06T01:31:41.537Z,94997.09
2024-01-06T01:34:10.085Z,95001.78
2024-01-06T01:36:39.851Z,94996.72
2024-01-06T01:39:08.140Z,94997.50
2024-01-06T01:41:36.608Z,95003.50
2024-01-06T01:44:05.449Z,95009.53
2024-01-06T01:46:33.848Z,95013.13
2024-01-06T01:49:03.207Z,95002.47
2024-01-06T01:51:32.855Z,95007.88
2024-01-06T01:54:04.178Z,94994.16
2024-01-06T01:56:35.252Z,95002.91
2024-01-06T01:59:04.233Z,94995.47
2024-01-06T02:01:32.584Z,94993.09
2024-01-06T02:04:01.032Z,94993.75
2024-01-06T02:06:29.895Z,94985.91
2024-01-06T02:08:58.219Z,94992.22
2024-01-06T02:11:27.829Z,94984.47
2024-01-06T02:13:56.080Z,94982.31
2024-01-06T02:16:24.354Z,94987.06
2024-01-06T02:18:52.955Z,94994.22
2024-01-06T02:21:22.119Z,94989.88
2024-01-06T02:23:51.949Z,94987.78
2024-01-06T02:26:20.793Z,94974.00
2024-01-06T02:28:50.444Z,94969.59
2024-01-06T02:31:18.985Z,94974.28
2024-01-06T02:33:47.420Z,94980.16
2024-01-06T02:36:15.770Z,94983.31
2024-01-06T02:38:44.390Z,94984.19
2024-01-06T02:41:14.198Z,94970.94
2024-01-06T02:43:43.025Z,94977.16
2024-01-06T02:46:11.357Z,94974.75
2024-01-06T02:48:39.869Z,94979.31
2024-01-06T02:51:08.189Z,94984.47
2024-01-06T02:53:36.712Z,94983.91
2024-01-06T02:56:05.670Z,94976.25
2024-01-06T02:58:35.471Z,94978.06
2024-01-06T03:01:03.985Z,94984.66
2024-01-06T03:03:32.478Z,94979.59
2024-01-06T03:06:03.812Z,94981.19
2024-01-06T03:08:32.492Z,94982.13
2024-01-06T03:11:00.908Z,94980.78
2024-01-06T03:13:29.387Z,94981.22
2024-01-06T03:15:59.096Z,94959.41
2024-01-06T03:18:28.702Z,94973.81
2024-01-06T03:20:57.215Z,94978.16
2024-01-06T03:23:25.689Z,94978.88
2024-01-06T03:25:54.424Z,94962.13
2024-01-06T03:28:22.669Z,94969.22
2024-01-06T03:30:51.167Z,94967.34
2024-01-06T03:33:20.938Z,94963.19
2024-01-06T03:35:49.293Z,94962.31
2024-01-06T03:38:17.718Z,94966.16
2024-01-06T03:40:46.192Z,94952.28
2024-01-06T03:43:15.192Z,94958.13
2024-01-06T03:45:43.929Z,94957.06
2024-01-06T03:48:12.534Z,94949.22
2024-01-06T03:50:42.640Z,94951.19
2024-01-06T03:53:10.952Z,94955.78
2024-01-06T03:55:39.324Z,94954.69
2024-01-06T03:58:07.881Z,94953.94
2024-01-06T04:00:36.160Z,94953.41
2024-01-06T04:03:04.553Z,94972.88
2024-01-06T04:05:33.130Z,94984.22
2024-01-06T04:08:02.739Z,94979.59
2024-01-06T04:10:31.026Z,94978.16
2024-01-06T04:12:59.561Z,94984.94
2024-01-06T04:15:27.999Z,94980.13
2024-01-06T04:17:57.413Z,94967.28
2024-01-06T04:20:25.915Z,94977.34
2024-01-06T04:22:54.533Z,94973.38
2024-01-06T04:25:24.208Z,94976.72
2024-01-06T04:27:52.724Z,94971.84
2024-01-06T04:30:21.981Z,94966.81
2024-01-06T04:32:50.764Z,94994.84
2024-01-06T04:35:19.322Z,95001.41
2024-01-06T04:37:48.927Z,95004.38
2024-01-06T04:40:18.128Z,94997.56
2024-01-06T04:42:47.956Z,94997.88
2024-01-06T04:45:16.381Z,94988.88
2024-01-06T04:47:45.013Z,94982.81
2024-01-06T04:50:13.275Z,94986.47
2024-01-06T04:52:41.570Z,94981.09
2024-01-06T04:55:10.499Z,94982.22
2024-01-06T04:57:39.127Z,94970.13
2024-01-06T05:00:10.072Z,94969.50
2024-01-06T05:02:39.420Z,94973.09
2024-01-06T05:05:10.903Z,94969.25
2024-01-06T05:07:39.349Z,94970.91
2024-01-06T05:10:09.300Z,94979.03
2024-01-06T05:12:37.715Z,94992.25
2024-01-06T05:15:06.849Z,94979.31
2024-01-06T05:17:36.882Z,94986.72
2024-01-06T05:20:06.030Z,94988.72
2024-01-06T05:22:34.300Z,94994.25
2024-01-06T05:25:03.027Z,94995.19
2024-01-06T05:27:31.680Z,95007.94
2024-01-06T05:30:00.078Z,94995.50
2024-01-06T05:32:28.548Z,95014.53
2024-01-06T05:34:59.303Z,95020.72
2024-01-06T05:37:27.601Z,95019.34
2024-01-06T05:39:56.093Z,95024.06
2024-01-06T05:42:25.193Z,95043.56
2024-01-06T05:44:53.385Z,95062.31
2024-01-06T05:47:22.103Z,95069.88
2024-01-06T05:49:50.800Z,95074.38
2024-01-06T05:52:20.981Z,95083.09
2024-01-06T05:54:49.896Z,95071.38
2024-01-06T05:57:19.387Z,95077.13
2024-01-06T05:59:48.535Z,95077.84
2024-01-06T06:02:17.659Z,95073.22
2024-01-06T06:04:46.667Z,95065.59
2024-01-06T06:07:15.328Z,95054.03
2024-01-06T06:09:48.248Z,95058.81
2024-01-06T06:12:17.030Z,95056.00
2024-01-06T06:14:45.584Z,95059.44
2024-01-06T06:17:14.224Z,95066.03
2024-01-06T06:19:42.928Z,95070.41
2024-01-06T06:22:11.745Z,95063.94
2024-01-06T06:24:40.364Z,95068.50
2024-01-06T06:27:10.258Z,95072.00
2024-01-06T06:29:39.438Z,95081.38
2024-01-06T06:32:09.218Z,95073.97
2024-01-06T06:34:37.961Z,95078.31
2024-01-06T06:37:06.830Z,95074.34
2024-01-06T06:39:36.429Z,95074.88
2024-01-06T06:42:05.176Z,95100.53
2024-01-06T06:44:34.985Z,95104.25
2024-01-06T06:47:03.948Z,95094.63
2024-01-06T06:49:32.330Z,95106.44
2024-01-06T06:52:00.845Z,95093.88
2024-01-06T06:54:30.136Z,95107.38
2024-01-06T06:56:58.448Z,95106.31
2024-01-06T06:59:26.880Z,95113.13
2024-01-06T07:01:56.724Z,95095.31
2024-01-06T07:04:27.212Z,95113.41
2024-01-06T07:06:55.627Z,95112.63
2024-01-06T07:09:25.961Z,95122.25
2024-01-06T07:11:54.295Z,95111.22
2024-01-06T07:14:22.493Z,95125.38
2024-01-06T07:16:50.815Z,95120.72
2024-01-06T07:19:20.978Z,95125.66
2024-01-06T07:21:49.769Z,95134.75
2024-01-06T07:24:19.211Z,95134.53
2024-01-06T07:26:47.503Z,95123.38
2024-01-06T07:29:16.520Z,95131.28
2024-01-06T07:31:45.036Z,95141.31
2024-01-06T07:34:13.891Z,95138.59
2024-01-06T07:36:43.667Z,95142.16
2024-01-06T07:39:12.229Z,95128.34
2024-01-06T07:41:40.634Z,95135.00
2024-01-06T07:44:08.917Z,95140.69
2024-01-06T07:46:38.715Z,95149.97
2024-01-06T07:49:07.989Z,95140.81
2024-01-06T07:51:36.867Z,95143.69
2024-01-06T07:54:07.716Z,95138.72
2024-01-06T07:56:36.308Z,95148.25
2024-01-06T07:59:04.757Z,95151.13
2024-01-06T08:01:33.177Z,95152.91
2024-01-06T08:04:02.949Z,95154.69
2024-01-06T08:06:31.372Z,95151.09
2024-01-06T08:08:59.673Z,95171.56
2024-01-06T08:11:29.377Z,95170.81
2024-01-06T08:13:57.805Z,95145.13
2024-01-06T08:16:26.261Z,95153.53
2024-01-06T08:18:54.611Z,95179.16
2024-01-06T08:21:23.207Z,95165.09
2024-01-06T08:23:51.455Z,95173.50
2024-01-06T08:26:20.000Z,95168.06
2024-01-06T08:28:49.653Z,95175.84
2024-01-06T08:31:18.197Z,95177.44
2024-01-06T08:33:46.966Z,95184.88
2024-01-06T08:36:15.550Z,95180.81
2024-01-06T08:38:43.932Z,95167.16
2024-01-06T08:41:12.218Z,95174.00
2024-01-06T08:43:40.484Z,95194.50
2024-01-06T08:46:10.489Z,95194.91
2024-01-06T08:48:39.177Z,95201.81
2024-01-06T08:51:07.652Z,95171.13
2024-01-06T08:53:35.961Z,95189.38
2024-01-06T08:56:04.771Z,95188.06
2024-01-06T08:58:33.238Z,95205.88
2024-01-06T09:01:02.183Z,95187.31
2024-01-06T09:03:32.104Z,95192.16
2024-01-06T09:06:01.511Z,95206.88
2024-01-06T09:08:29.853Z,95219.69
2024-01-06T09:10:58.691Z,95198.44
2024-01-06T09:13:27.822Z,95204.38
2024-01-06T09:15:57.126Z,95211.97
2024-01-06T09:18:26.355Z,95222.06
2024-01-06T09:20:57.258Z,95224.13
2024-01-06T09:23:26.619Z,95206.25
2024-01-06T09:25:55.564Z,95223.28
2024-01-06T09:28:24.465Z,95224.72
2024-01-06T09:30:56.221Z,95210.28
2024-01-06T09:33:25.263Z,95216.66
2024-01-06T09:35:56.013Z,95222.19
2024-01-06T09:38:25.066Z,95217.53
2024-01-06T09:40:54.413Z,95230.16
2024-01-06T09:43:23.285Z,95232.06
2024-01-06T09:45:58.994Z,95223.06
2024-01-06T09:48:31.981Z,95234.53
2024-01-06T09:51:04.902Z,95249.91
2024-01-06T09:53:38.571Z,95236.53
2024-01-06T09:56:08.065Z,95239.94
2024-01-06T09:58:38.002Z,95242.06
2024-01-06T10:01:07.830Z,95249.38
2024-01-06T10:03:37.464Z,95227.13
2024-01-06T10:06:07.681Z,95234.69
2024-01-06T10:08:36.372Z,95243.94
2024-01-06T10:11:04.851Z,95221.69
2024-01-06T10:13:33.170Z,95228.03
2024-01-06T10:16:02.279Z,95227.75
2024-01-06T10:18:31.194Z,95231.44
2024-01-06T10:21:00.276Z,95227.13
2024-01-06T10:23:30.831Z,95229.13
2024-01-06T10:26:01.172Z,95215.53
2024-01-06T10:28:31.934Z,95226.03
2024-01-06T10:31:01.247Z,95223.25
2024-01-06T10:33:29.874Z,95228.31
2024-01-06T10:35:58.407Z,95225.50
2024-01-06T10:38:28.574Z,95218.94
2024-01-06T10:41:02.122Z,95218.28
2024-01-06T10:43:31.096Z,95203.28
2024-01-06T10:46:00.487Z,95217.38
2024-01-06T10:48:28.995Z,95202.50
2024-01-06T10:50:57.926Z,95202.56
2024-01-06T10:53:27.955Z,95206.81
2024-01-06T10:55:56.873Z,95209.09
2024-01-06T10:58:27.005Z,95200.75
2024-01-06T11:00:56.076Z,95192.63
2024-01-06T11:03:24.872Z,95214.16
2024-01-06T11:05:53.990Z,95199.06
2024-01-06T11:08:24.869Z,95199.47
2024-01-06T11:10:53.340Z,95199.19
2024-01-06T11:13:25.209Z,95200.25
2024-01-06T11:15:55.581Z,95198.13
2024-01-06T11:18:35.533Z,95186.72
2024-01-06T11:21:23.494Z,95181.94
2024-01-06T11:24:17.914Z,95189.06
2024-01-06T11:26:47.463Z,95182.75
2024-01-06T11:29:16.011Z,95180.78
2024-01-06T11:31:46.072Z,95185.66
2024-01-06T11:34:20.285Z,95182.38
2024-01-06T11:36:50.642Z,95184.91
2024-01-06T11:39:38.017Z,95181.56
2024-01-06T11:42:09.733Z,95177.97
2024-01-06T11:44:39.955Z,95175.44
2024-01-06T11:47:10.453Z,95182.31
2024-01-06T11:49:39.131Z,95180.22
2024-01-06T11:52:08.230Z,95186.91
2024-01-06T11:54:37.827Z,95185.19
2024-01-06T11:57:06.683Z,95181.31
2024-01-06T11:59:35.061Z,95171.09
2024-01-06T12:02:03.430Z,95174.97
2024-01-06T12:04:33.335Z,95171.84
2024-01-06T12:07:08.767Z,95163.34
2024-01-06T12:09:38.193Z,95183.03
2024-01-06T12:12:07.696Z,95172.03
2024-01-06T12:14:36.199Z,95179.66
2024-01-06T12:17:06.340Z,95179.25
2024-01-06T12:19:39.538Z,95171.66
2024-01-06T12:22:09.503Z,95178.94
2024-01-06T12:24:38.450Z,95183.66
2024-01-06T12:27:09.484Z,95173.53
2024-01-06T12:29:40.894Z,95178.66
2024-01-06T12:32:09.808Z,95177.25
2024-01-06T12:34:40.628Z,95181.47
2024-01-06T12:37:09.588Z,95189.75
2024-01-06T12:39:38.131Z,95188.34
2024-01-06T12:42:07.015Z,95182.38
2024-01-06T12:44:38.251Z,95190.69
2024-01-06T12:47:06.834Z,95157.03
2024-01-06T12:49:38.944Z,95194.81
2024-01-06T12:52:09.743Z,95191.50
2024-01-06T12:54:38.022Z,95194.13
2024-01-06T12:57:06.713Z,95196.66
2024-01-06T12:59:35.222Z,95192.88
2024-01-06T13:02:03.932Z,95202.06
2024-01-06T13:04:32.519Z,95201.53
2024-01-06T13:07:03.149Z,95198.28
2024-01-06T13:09:33.808Z,95197.91
2024-01-06T13:12:02.940Z,95204.59
2024-01-06T13:14:31.470Z,95204.25
2024-01-06T13:16:59.886Z,95205.41
2024-01-06T13:19:28.602Z,95213.81
2024-01-06T13:21:57.097Z,95211.53
2024-01-06T13:24:25.840Z,95204.69
2024-01-06T13:26:55.525Z,95215.59
2024-01-06T13:29:24.203Z,95211.72
2024-01-06T13:31:53.974Z,95211.53
2024-01-06T13:34:22.581Z,95217.22
2024-01-06T13:36:52.181Z,95219.09
2024-01-06T13:39:22.598Z,95220.56
2024-01-06T13:41:51.572Z,95211.53
2024-01-06T13:44:21.587Z,95209.56
2024-01-06T13:46:52.190Z,95214.06
2024-01-06T13:49:21.092Z,95213.22
2024-01-06T13:51:51.362Z,95219.63
2024-01-06T13:54:20.762Z,95214.47
2024-01-06T13:56:49.975Z,95218.28
2024-01-06T13:59:18.758Z,95206.09
2024-01-06T14:01:48.749Z,95218.19
2024-01-06T14:04:18.410Z,95211.97
2024-01-06T14:06:49.387Z,95216.84
2024-01-06T14:09:21.857Z,95213.84
2024-01-06T14:11:50.321Z,95223.47
2024-01-06T14:14:18.618Z,95224.28
2024-01-06T14:16:48.637Z,95216.91
2024-01-06T14:19:17.085Z,95207.22
2024-01-06T14:21:45.847Z,95222.19
2024-01-06T14:24:15.634Z,95212.94
2024-01-06T14:26:44.439Z,95222.72
2024-01-06T14:29:17.704Z,95226.53
2024-01-06T14:31:46.356Z,95221.47
2024-01-06T14:34:16.635Z,95218.47
2024-01-06T14:36:49.428Z,95224.34
2024-01-06T14:39:20.218Z,95215.84
2024-01-06T14:41:48.777Z,95224.06
2024-01-06T14:44:17.281Z,95229.63
2024-01-06T14:46:45.902Z,95237.38
2024-01-06T14:49:16.176Z,95231.38
2024-01-06T14:51:46.854Z,95229.00
2024-01-06T14:54:15.241Z,95227.00
2024-01-06T14:56:44.080Z,95234.06
2024-01-06T14:59:12.965Z,95233.41
2024-01-06T15:01:45.970Z,95240.13
2024-01-06T15:04:16.714Z,95246.81
2024-01-06T15:06:45.676Z,95244.44
2024-01-06T15:09:14.532Z,95249.66
2024-01-06T15:11:42.845Z,95244.00
2024-01-06T15:14:11.872Z,95252.19
2024-01-06T15:16:43.629Z,95233.19
2024-01-06T15:19:13.704Z,95236.44
2024-01-06T15:21:44.638Z,95248.72
2024-01-06T15:24:14.732Z,95242.72
2024-01-06T15:26:44.082Z,95255.78
2024-01-06T15:29:13.901Z,95222.88
2024-01-06T15:31:42.770Z,95246.91
2024-01-06T15:34:11.378Z,95244.53
2024-01-06T15:36:40.294Z,95244.28
2024-01-06T15:39:10.261Z,95239.31
2024-01-06T15:41:39.277Z,95244.00
2024-01-06T15:44:07.838Z,95236.28
2024-01-06T15:46:36.330Z,95233.38
2024-01-06T15:49:04.764Z,95241.00
2024-01-06T15:51:33.451Z,95244.22
2024-01-06T15:54:01.743Z,95248.72
2024-01-06T15:56:31.393Z,95245.75
2024-01-06T15:58:59.678Z,95249.59
2024-01-06T16:01:28.079Z,95245.50
2024-01-06T16:03:56.922Z,95241.81
2024-01-06T16:06:25.624Z,95252.47
2024-01-06T16:08:55.261Z,95242.47
2024-01-06T16:11:24.046Z,95244.28
2024-01-06T16:13:54.363Z,95242.69
2024-01-06T16:16:24.142Z,95247.75
2024-01-06T16:18:52.786Z,95238.81
2024-01-06T16:21:25.078Z,95235.66
2024-01-06T16:23:53.880Z,95236.81
2024-01-06T16:26:22.413Z,95247.94
2024-01-06T16:28:50.812Z,95233.56
2024-01-06T16:31:25.865Z,95227.25
2024-01-06T16:33:55.201Z,95238.41
2024-01-06T16:36:24.618Z,95242.19
2024-01-06T16:38:52.942Z,95240.06
2024-01-06T16:41:27.316Z,95233.13
2024-01-06T16:43:55.991Z,95239.88
2024-01-06T16:46:26.106Z,95240.88
2024-01-06T16:48:54.586Z,95250.88
2024-01-06T16:51:23.151Z,95256.00
2024-01-06T16:53:53.845Z,95243.97
2024-01-06T16:56:22.393Z,95248.25
2024-01-06T16:58:51.073Z,95250.31
2024-01-06T17:01:19.741Z,95247.06
2024-01-06T17:03:49.727Z,95255.50
2024-01-06T17:06:18.164Z,95248.34
2024-01-06T17:08:46.641Z,95260.72
2024-01-06T17:11:16.149Z,95250.81
2024-01-06T17:13:44.691Z,95258.59
2024-01-06T17:16:13.417Z,95258.13
2024-01-06T17:18:42.190Z,95247.56
2024-01-06T17:21:15.822Z,95249.41
2024-01-06T17:23:44.511Z,95255.03
2024-01-06T17:26:12.893Z,95257.47
2024-01-06T17:28:41.149Z,95269.94
2024-01-06T17:31:09.837Z,95263.91
2024-01-06T17:33:41.258Z,95261.53
2024-01-06T17:36:09.577Z,95267.72
2024-01-06T17:38:39.488Z,95265.44
2024-01-06T17:41:08.954Z,95270.47
2024-01-06T17:43:39.768Z,95266.41
2024-01-06T17:46:08.181Z,95269.03
2024-01-06T17:48:36.918Z,95265.59
2024-01-06T17:51:06.201Z,95268.63
2024-01-06T17:53:34.360Z,95268.69
2024-01-06T17:56:03.950Z,95272.13
2024-01-06T17:58:32.371Z,95268.06
2024-01-06T18:01:00.931Z,95261.59
2024-01-06T18:03:29.513Z,95272.44
2024-01-06T18:05:58.041Z,95258.84
2024-01-06T18:08:26.571Z,95265.75
2024-01-06T18:10:55.077Z,95267.41
2024-01-06T18:13:24.801Z,95278.47
2024-01-06T18:15:53.912Z,95278.31
2024-01-06T18:18:22.247Z,95278.78
2024-01-06T18:20:51.836Z,95271.84
2024-01-06T18:23:20.040Z,95283.00
2024-01-06T18:25:48.258Z,95274.03
2024-01-06T18:28:16.621Z,95273.56
2024-01-06T18:30:46.368Z,95276.66
2024-01-06T18:33:14.959Z,95268.53
2024-01-06T18:35:43.312Z,95279.63
2024-01-06T18:38:11.664Z,95275.78
2024-01-06T18:40:39.873Z,95270.81
2024-01-06T18:43:08.130Z,95275.91
2024-01-06T18:45:36.477Z,95276.38
2024-01-06T18:48:07.065Z,95274.34
2024-01-06T18:50:35.668Z,95272.13
2024-01-06T18:53:04.071Z,95270.59
2024-01-06T18:55:32.500Z,95274.66
2024-01-06T18:58:01.366Z,95278.81
2024-01-06T19:00:29.632Z,95277.75
2024-01-06T19:02:58.886Z,95272.06
2024-01-06T19:05:31.240Z,95265.75
2024-01-06T19:07:59.535Z,95272.91
2024-01-06T19:10:27.723Z,95262.81
2024-01-06T19:12:56.265Z,95267.81
2024-01-06T19:15:24.676Z,95267.72
2024-01-06T19:17:52.988Z,95263.22
2024-01-06T19:20:21.287Z,95268.38
2024-01-06T19:23:02.064Z,95261.75
2024-01-06T19:25:35.470Z,95262.50
2024-01-06T19:28:03.805Z,95269.00
2024-01-06T19:30:32.152Z,95258.03
2024-01-06T19:33:00.590Z,95252.22
2024-01-06T19:35:29.050Z,95258.59
2024-01-06T19:37:58.729Z,95265.34
2024-01-06T19:40:27.076Z,95259.50
2024-01-06T19:42:55.669Z,95258.28
2024-01-06T19:45:25.168Z,95261.44
2024-01-06T19:47:53.655Z,95258.34
2024-01-06T19:50:22.128Z,95257.78
2024-01-06T19:52:50.372Z,95256.25
2024-01-06T19:55:20.175Z,95259.41
2024-01-06T19:57:48.842Z,95262.34
2024-01-06T20:00:17.842Z,95258.59
2024-01-06T20:02:47.701Z,95252.34
2024-01-06T20:05:16.178Z,95263.00
2024-01-06T20:07:44.668Z,95255.56
2024-01-06T20:10:13.444Z,95255.19
2024-01-06T20:12:44.129Z,95255.03
2024-01-06T20:15:12.529Z,95254.03
2024-01-06T20:17:43.535Z,95253.38
2024-01-06T20:20:13.150Z,95253.78
2024-01-06T20:22:41.459Z,95252.28
2024-01-06T20:25:10.829Z,95253.06
2024-01-06T20:27:39.195Z,95250.34
2024-01-06T20:30:10.395Z,95256.63
2024-01-06T20:32:41.284Z,95252.53
2024-01-06T20:35:11.304Z,95246.69
2024-01-06T20:37:39.642Z,95246.06
2024-01-06T20:40:11.009Z,95245.75
2024-01-06T20:42:39.402Z,95241.81
2024-01-06T20:45:10.557Z,95249.09
2024-01-06T20:47:39.145Z,95238.25
2024-01-06T20:50:08.632Z,95242.41
2024-01-06T20:52:38.195Z,95235.88
2024-01-06T20:55:08.079Z,95237.97
2024-01-06T20:57:36.458Z,95228.06
2024-01-06T21:00:05.637Z,95241.00
2024-01-06T21:02:35.554Z,95231.09
2024-01-06T21:05:06.122Z,95242.78
2024-01-06T21:07:35.688Z,95239.47
2024-01-06T21:10:05.440Z,95237.16
2024-01-06T21:12:34.775Z,95238.41
2024-01-06T21:15:03.381Z,95248.25
2024-01-06T21:17:32.919Z,95238.53
2024-01-06T21:20:03.870Z,95239.53
2024-01-06T21:22:34.649Z,95228.53
2024-01-06T21:25:04.727Z,95234.72
2024-01-06T21:27:35.265Z,95235.16
2024-01-06T21:30:06.737Z,95246.00
2024-01-06T21:32:35.456Z,95240.66
2024-01-06T21:35:05.988Z,95239.16
2024-01-06T21:37:34.573Z,95244.56
2024-01-06T21:40:06.828Z,95246.25
2024-01-06T21:42:35.221Z,95226.56
2024-01-06T21:45:03.817Z,95232.38
2024-01-06T21:47:32.230Z,95238.25
2024-01-06T21:50:00.480Z,95232.47
2024-01-06T21:52:30.062Z,95228.25
2024-01-06T21:54:58.389Z,95234.59
2024-01-06T21:57:26.872Z,95220.84
2024-01-06T21:59:55.149Z,95224.38
2024-01-06T22:02:23.375Z,95232.81
2024-01-06T22:04:51.684Z,95237.44
2024-01-06T22:07:20.676Z,95235.00
2024-01-06T22:09:50.402Z,95228.81
2024-01-06T22:12:19.056Z,95238.66
2024-01-06T22:14:47.444Z,95232.63
2024-01-06T22:17:15.727Z,95237.88
2024-01-06T22:19:45.002Z,95234.16
2024-01-06T22:22:13.220Z,95236.22
2024-01-06T22:24:42.792Z,95230.41
2024-01-06T22:27:13.213Z,95231.63
2024-01-06T22:29:44.402Z,95223.59
2024-01-06T22:32:13.298Z,95224.03
2024-01-06T22:34:45.563Z,95228.56
2024-01-06T22:37:14.183Z,95229.38
2024-01-06T22:39:44.168Z,95230.09
2024-01-06T22:42:13.847Z,95228.66
2024-01-06T22:44:42.548Z,95232.63
2024-01-06T22:47:10.979Z,95208.88
2024-01-06T22:49:39.281Z,95224.69
2024-01-06T22:52:07.701Z,95231.75
2024-01-06T22:54:36.164Z,95224.09
2024-01-06T22:57:04.675Z,95233.69
2024-01-06T22:59:34.286Z,95235.47
2024-01-06T23:02:02.656Z,95231.25
2024-01-06T23:04:31.063Z,95226.75
2024-01-06T23:06:59.442Z,95227.56
2024-01-06T23:09:27.681Z,95233.19
2024-01-06T23:11:55.938Z,95236.59
2024-01-06T23:14:24.158Z,95236.22
2024-01-06T23:16:53.755Z,95243.22
2024-01-06T23:19:22.268Z,95240.69
2024-01-06T23:21:50.638Z,95236.97
2024-01-06T23:24:19.744Z,95245.47
2024-01-06T23:26:48.200Z,95230.94
2024-01-06T23:29:16.789Z,95248.13
2024-01-06T23:31:45.415Z,95239.19
2024-01-06T23:36:46.484Z,95245.34
2024-01-06T23:39:14.847Z,95237.34
2024-01-06T23:41:43.129Z,95229.94
2024-01-06T23:44:11.387Z,95241.03
2024-01-06T23:46:39.780Z,95236.31
2024-01-06T23:49:08.272Z,95237.50
2024-01-06T23:51:38.032Z,95241.72
2024-01-06T23:54:06.661Z,95239.72
2024-01-06T23:56:35.049Z,95243.41
2024-01-06T23:59:03.482Z,95250.53
